Dalzell, IL (61320)

8:51 PM CST on December 03, 2016 (GMT -0600)
Spring Valley | | Change Station
Active Advisory: Winter Weather Advisory

Elev 584 ft 41.33 °N, 89.22 °W | Updated 4 seconds ago

Clear
Clear
32.9 °F
Feels Like 33 °F
N
0.0
Wind Variable Wind from SSE
Gusts 0.0 mph

Today
High -- | Low -- °F
--% Chance of Precip.
Yesterday
High -- | Low -- °F
Precip. -- in
Pressure 30.30 in
Visibility 10.0 miles
Clouds Clear
Windchill 33 °F
Dew Point 26 °F
Humidity 77%
Rainfall 0.00 in
Snow Depth Not available.
7:05 AM 4:27 PM
Waxing Crescent, 19% visible
METAR KVYS 040235Z AUTO 17005KT 10SM CLR 00/M02 A3030 RMK AO2 T00041017
Pressure 30.30 in
Visibility 10.0 miles
Clouds Clear
Windchill 33 °F
Dew Point 26 °F
Humidity 77%
Rainfall 0.00 in
Snow Depth Not available.
7:05 AM 4:27 PM
Waxing Crescent, 19% visible
METAR KVYS 040235Z AUTO 17005KT 10SM CLR 00/M02 A3030 RMK AO2 T00041017

10-Day Weather Forecast

Almanac

Astronomy

Dec. 03, 2016 Rise Set
Actual Time
Civil Twilight
Nautical Twilight
Astronomical Twilight
Moon
Length of Visible Light
Length of Day
Tomorrow will be .
, % of the Moon is Illuminated

Today's Extremes

State Highs State Lows

Community

WunderPhotos

Upload Photos

1,955,566 photos uploaded!

WunderBlog® & News

Nearby

Air Quality

  Air Quality AQ Index Pollutant
Not available.

Snow Depth

Station Depth Elevation

Earthquake Activity

City Distance Mag. Time & Date
Minimum magnitude displayed is 2.5.

Coastal Water Temperatures

Place Temperature

Stations

Nearby Weather Stations

Station Location Temp. Windchill Dew Point Humidity Wind Precip. Elev Updated Type
                   

Watches & Warnings

Winter Weather Advisory
Issued: 8:20 PM CST Dec. 3, 2016 – National Weather Service

... Winter Weather Advisory remains in effect from 2 am to 3 PM
CST Sunday...

* timing... snow will begin between 3 am and 6 am... and continue
through at least mid afternoon Sunday. The heaviest snowfall is
expected between 9 am and 2 PM.

* Snow accumulations... 2 to 4 inches.

* Impacts... accumulating wet snow may lead to hazardous travel
conditions. Roadways may be slick at times due to slushy snow
and visibilties will be less than one mile at times.

Precautionary/preparedness actions...

A Winter Weather Advisory for snow means that periods of snow
will cause primarily travel difficulties. Be prepared for snow
covered roads and limited visibilities... and use caution while
driving.



Sheets